Time;durP1;ratioP1;P1;durP2;ratioP2;P2;SDS_P1;SDS_P2;PMS_P1;PMS_P2;Temp;Humidity;BMP_temperature;BMP_pressure;BME280_temperature;BME280_humidity;BME280_pressure;Samples;Min_cycle;Max_cycle;Signal;HPM_P1;HPM_P2
2021/09/05 00:00:35;;;;;;;30.17;18.73;;;13.10;99.90;;;14.39;100.00;100868.53;6175392;23;20005;-89
2021/09/05 00:03:01;;;;;;;29.67;18.23;;;13.00;99.90;;;14.36;100.00;100869.31;6199993;23;20406;-92
2021/09/05 00:05:28;;;;;;;26.50;17.35;;;13.00;99.90;;;14.36;100.00;100869.31;6177716;23;20072;-90
2021/09/05 00:07:54;;;;;;;30.80;18.30;;;13.00;99.90;;;14.31;100.00;100870.44;6174133;23;20013;-90
2021/09/05 00:10:20;;;;;;;32.17;19.08;;;12.90;99.90;;;14.27;100.00;100864.75;6173409;23;20016;-88
2021/09/05 00:12:47;;;;;;;30.50;18.67;;;12.90;99.90;;;14.30;100.00;100876.41;6174175;23;20005;-91
2021/09/05 00:15:14;;;;;;;33.58;18.40;;;13.00;99.90;;;14.24;100.00;100873.13;6171366;23;20040;-90
2021/09/05 00:17:40;;;;;;;26.73;17.00;;;12.90;99.90;;;14.23;100.00;100877.09;6171601;23;20024;-92
2021/09/05 00:20:08;;;;;;;36.35;19.80;;;12.80;99.90;;;14.17;100.00;100873.00;6175570;23;20012;-92
2021/09/05 00:22:34;;;;;;;31.70;18.75;;;12.80;99.90;;;14.15;100.00;100875.38;6176658;23;20037;-92
2021/09/05 00:25:03;;;;;;;30.48;18.63;;;12.80;99.90;;;14.09;100.00;100874.91;6172956;23;20009;-91
2021/09/05 00:27:29;;;;;;;28.05;17.92;;;12.80;99.90;;;14.09;100.00;100874.91;6197494;23;20008;-90
2021/09/05 00:29:55;;;;;;;29.13;17.58;;;12.70;99.90;;;14.00;100.00;100863.09;6173500;23;20013;-89
2021/09/05 00:32:20;;;;;;;30.55;18.95;;;12.70;99.90;;;14.00;100.00;100877.13;6165964;23;20113;-90
2021/09/05 00:34:46;;;;;;;32.05;20.60;;;12.70;99.90;;;14.00;100.00;100877.13;6158521;23;20175;-92
2021/09/05 00:37:12;;;;;;;29.65;17.58;;;12.70;99.90;;;14.01;100.00;100884.38;6160983;23;20005;-89
2021/09/05 00:39:38;;;;;;;34.50;19.30;;;12.60;99.90;;;13.97;100.00;100879.88;6160869;23;20013;-89
2021/09/05 00:42:04;;;;;;;28.10;16.63;;;12.70;99.90;;;13.89;100.00;100876.16;6161390;23;20020;-89
2021/09/05 00:44:30;;;;;;;30.90;18.60;;;12.50;99.90;;;13.84;100.00;100882.06;6161380;23;20013;-90
2021/09/05 00:46:57;;;;;;;28.77;17.48;;;12.50;99.90;;;13.81;100.00;100882.81;6161223;23;20009;-90
2021/09/05 00:49:23;;;;;;;24.23;16.58;;;12.40;99.90;;;13.77;100.00;100883.97;6162138;23;20009;-89
2021/09/05 00:51:49;;;;;;;27.92;18.80;;;12.50;99.90;;;13.72;100.00;100885.06;6162868;23;20009;-90
2021/09/05 00:54:15;;;;;;;31.33;18.95;;;12.40;99.90;;;13.62;100.00;100880.88;6167254;23;20009;-92
2021/09/05 00:56:45;;;;;;;37.05;19.33;;;12.40;99.90;;;13.62;100.00;100885.69;6168230;23;20005;-89
2021/09/05 00:59:17;;;;;;;37.75;19.55;;;12.30;99.90;;;13.64;100.00;100877.72;6193423;23;20056;-90
2021/09/05 01:01:44;;;;;;;33.03;19.92;;;12.40;99.90;;;13.65;100.00;100880.13;6170311;23;20351;-90
2021/09/05 01:04:10;;;;;;;32.42;19.80;;;12.40;99.90;;;13.68;100.00;100878.56;6199384;23;20012;-90
2021/09/05 01:06:40;;;;;;;34.13;19.35;;;12.40;99.90;;;13.66;100.00;100887.38;6164774;23;20455;-90
2021/09/05 01:09:08;;;;;;;30.35;18.95;;;12.40;99.90;;;13.68;100.00;100887.00;6164196;23;20012;-89
2021/09/05 01:11:37;;;;;;;32.22;18.27;;;12.30;99.90;;;13.65;100.00;100882.13;6163936;23;20390;-90
2021/09/05 01:14:08;;;;;;;34.22;18.83;;;12.30;99.90;;;13.66;100.00;100881.78;6163166;23;20084;-90
2021/09/05 01:16:43;;;;;;;38.42;21.35;;;12.30;99.90;;;13.67;100.00;100880.59;6164793;23;20016;-90
2021/09/05 01:19:15;;;;;;;34.05;20.25;;;12.30;99.90;;;13.69;100.00;100885.81;6178137;23;20101;-89
2021/09/05 01:21:45;;;;;;;38.08;20.30;;;12.40;99.90;;;13.72;100.00;100890.69;6180081;23;20013;-90
2021/09/05 01:24:16;;;;;;;35.33;20.88;;;12.40;99.90;;;13.66;100.00;100880.97;6164535;23;20020;-89
2021/09/05 01:26:46;;;;;;;32.13;20.02;;;12.40;99.90;;;13.69;100.00;100880.22;6166619;23;20005;-89
2021/09/05 01:29:14;;;;;;;36.40;20.45;;;12.30;99.90;;;13.66;100.00;100887.38;6165045;23;20040;-90
2021/09/05 01:31:52;;;;;;;35.45;20.65;;;12.40;99.90;;;13.66;100.00;100887.38;6166911;23;20005;-89
2021/09/05 01:34:22;;;;;;;34.25;19.85;;;12.40;99.90;;;13.67;100.00;100880.59;6162851;23;20009;-91
2021/09/05 01:36:51;;;;;;;31.95;19.73;;;12.30;99.90;;;13.69;100.00;100891.44;6165646;23;20097;-89
2021/09/05 01:39:21;;;;;;;37.33;21.15;;;12.40;99.90;;;13.68;100.00;100887.81;6164130;23;20013;-91
2021/09/05 01:41:48;;;;;;;39.08;21.98;;;12.30;99.90;;;13.71;100.00;100889.06;6163390;23;20009;-91
2021/09/05 01:44:23;;;;;;;34.90;20.65;;;12.40;99.90;;;13.68;100.00;100885.00;6165128;23;20337;-91
2021/09/05 01:46:50;;;;;;;38.13;21.52;;;12.30;99.90;;;13.73;100.00;100889.50;6166434;23;20014;-89
2021/09/05 01:49:17;;;;;;;35.92;20.13;;;12.30;99.90;;;13.78;100.00;100885.56;6165789;23;20019;-92
2021/09/05 01:51:43;;;;;;;36.63;22.25;;;12.30;99.90;;;13.76;100.00;100883.16;6163398;23;20001;-92
2021/09/05 01:54:09;;;;;;;34.72;20.75;;;12.30;99.90;;;13.75;100.00;100884.31;6187805;23;20462;-91
2021/09/05 01:56:36;;;;;;;39.30;21.77;;;12.20;99.90;;;13.69;100.00;100891.44;6162521;23;20009;-90
2021/09/05 01:59:03;;;;;;;38.22;21.42;;;12.20;99.90;;;13.66;100.00;100898.59;6161842;23;20013;-90
2021/09/05 02:01:32;;;;;;;36.22;20.88;;;12.20;99.90;;;13.60;100.00;100894.50;6187409;23;20501;-91
2021/09/05 02:04:00;;;;;;;34.28;20.10;;;12.10;99.90;;;13.55;100.00;100894.00;6186516;23;20005;-91
2021/09/05 02:06:26;;;;;;;33.08;21.10;;;12.10;99.90;;;13.48;100.00;100886.25;6162013;23;20009;-89
2021/09/05 02:08:57;;;;;;;35.55;21.52;;;12.10;99.90;;;13.44;100.00;100884.56;6164443;23;20390;-90
2021/09/05 02:11:23;;;;;;;39.10;22.10;;;12.00;99.90;;;13.43;100.00;100886.53;6187937;23;20388;-91
2021/09/05 02:13:50;;;;;;;34.53;20.52;;;12.00;99.90;;;13.44;100.00;100892.97;6163109;23;20028;-89
2021/09/05 02:16:21;;;;;;;40.00;22.63;;;12.00;99.90;;;13.41;100.00;100890.91;6164124;23;20058;-91
2021/09/05 02:18:47;;;;;;;39.85;21.75;;;11.90;99.90;;;13.36;100.00;100883.59;6162670;23;20427;-89
2021/09/05 02:21:13;;;;;;;39.67;22.13;;;12.00;99.90;;;13.34;100.00;100894.38;6162905;23;20032;-89
2021/09/05 02:23:39;;;;;;;40.03;22.10;;;11.90;99.90;;;13.29;100.00;100891.88;6164330;23;20001;-90
2021/09/05 02:26:05;;;;;;;41.95;21.52;;;11.90;99.90;;;13.26;100.00;100891.81;6167622;23;20009;-93
2021/09/05 02:28:31;;;;;;;37.85;20.98;;;11.80;99.90;;;13.20;100.00;100892.09;6167454;23;20032;-90
2021/09/05 02:31:00;;;;;;;40.20;21.25;;;11.80;99.90;;;13.25;100.00;100905.03;6165843;23;20048;-87
2021/09/05 02:33:26;;;;;;;35.72;21.73;;;11.70;99.90;;;13.19;100.00;100896.09;6165928;23;20039;-90
2021/09/05 02:35:52;;;;;;;37.85;22.10;;;11.80;99.90;;;13.18;100.00;100894.47;6166081;23;20013;-89
2021/09/05 02:38:18;;;;;;;40.55;23.00;;;11.70;99.90;;;13.20;100.00;100902.50;6167359;23;20032;-90
2021/09/05 02:40:47;;;;;;;41.88;22.40;;;11.80;99.90;;;13.19;100.00;100907.31;6165473;23;20411;-89
2021/09/05 02:43:12;;;;;;;40.85;22.83;;;11.70;99.90;;;13.19;100.00;100906.50;6162246;23;20013;-90
2021/09/05 02:45:38;;;;;;;36.72;21.58;;;11.70;99.90;;;13.17;100.00;100901.25;6162167;23;20009;-91
2021/09/05 02:48:06;;;;;;;37.78;20.65;;;11.70;99.90;;;13.17;100.00;100904.06;6160774;23;20013;-91
2021/09/05 02:50:32;;;;;;;40.72;22.80;;;11.70;99.90;;;13.14;100.00;100893.59;6161712;23;20013;-90
2021/09/05 02:52:58;;;;;;;38.70;22.05;;;11.60;99.90;;;13.11;100.00;100908.34;6162180;23;20005;-90
2021/09/05 02:55:24;;;;;;;43.45;23.65;;;11.60;99.90;;;13.04;100.00;100905.34;6162375;23;20015;-90
2021/09/05 02:57:50;;;;;;;41.22;23.65;;;11.60;99.90;;;13.00;100.00;100904.47;6188364;23;20008;-90
2021/09/05 03:00:16;;;;;;;31.75;19.70;;;11.50;99.90;;;12.98;100.00;100906.00;6161951;23;20009;-91
2021/09/05 03:02:42;;;;;;;38.53;23.23;;;11.50;99.90;;;12.95;100.00;100907.56;6162646;23;20067;-90
2021/09/05 03:05:09;;;;;;;39.72;21.40;;;11.40;99.90;;;12.89;100.00;100902.63;6187473;23;20370;-90
2021/09/05 03:07:37;;;;;;;40.63;23.15;;;11.40;99.90;;;12.87;100.00;100902.19;6162269;23;20092;-90
2021/09/05 03:10:07;;;;;;;40.10;21.75;;;11.40;99.90;;;12.81;100.00;100907.25;6162399;23;20016;-92
2021/09/05 03:12:33;;;;;;;41.83;24.05;;;11.30;99.90;;;12.81;100.00;100901.63;6164027;23;20005;-89
2021/09/05 03:15:02;;;;;;;40.55;23.65;;;11.40;99.90;;;12.88;100.00;100909.41;6162285;23;20097;-89
2021/09/05 03:17:30;;;;;;;37.67;22.02;;;11.30;99.90;;;12.83;100.00;100906.91;6162132;23;20001;-89
2021/09/05 03:19:57;;;;;;;43.83;23.50;;;11.30;99.90;;;12.82;100.00;100902.47;6161847;23;20036;-89
2021/09/05 03:22:24;;;;;;;39.67;21.27;;;11.30;99.90;;;12.80;100.00;100899.22;6162160;23;20091;-91
2021/09/05 03:24:50;;;;;;;40.35;22.95;;;11.30;99.90;;;12.77;100.00;100909.19;6186768;23;20044;-91
2021/09/05 03:27:18;;;;;;;41.58;23.02;;;11.30;99.90;;;12.74;100.00;100903.50;6162108;23;20078;-90
2021/09/05 03:29:48;;;;;;;40.40;22.38;;;11.30;99.90;;;12.72;100.00;100908.63;6161526;23;20028;-90
2021/09/05 03:32:14;;;;;;;46.08;23.88;;;11.30;99.90;;;12.65;100.00;100896.09;6161772;23;20097;-91
2021/09/05 03:34:40;;;;;;;38.47;21.98;;;11.20;99.90;;;12.63;100.00;100897.63;6161736;23;20435;-90
2021/09/05 03:37:06;;;;;;;40.30;23.42;;;11.20;99.90;;;12.65;100.00;100904.50;6162114;23;20009;-90
2021/09/05 03:39:32;;;;;;;43.53;23.75;;;11.20;99.90;;;12.66;100.00;100917.34;6176720;23;20009;-90
2021/09/05 03:41:58;;;;;;;43.90;24.25;;;11.10;99.90;;;12.65;100.00;100903.69;6176527;23;20017;-91
2021/09/05 03:44:23;;;;;;;43.38;22.60;;;11.20;99.90;;;12.65;100.00;100906.47;6160991;23;20286;-91
2021/09/05 03:46:50;;;;;;;45.13;24.48;;;11.20;99.90;;;12.65;100.00;100907.31;6161879;23;20016;-91
2021/09/05 03:49:16;;;;;;;42.15;21.67;;;11.20;99.90;;;12.70;100.00;100917.44;6161570;23;20019;-90
2021/09/05 03:51:42;;;;;;;43.47;24.50;;;11.20;99.90;;;12.66;100.00;100914.53;6161598;23;20092;-92
2021/09/05 03:54:08;;;;;;;42.90;24.00;;;11.20;99.90;;;12.67;100.00;100907.78;6161191;23;20005;-90
2021/09/05 03:56:34;;;;;;;48.88;24.73;;;11.10;99.90;;;12.72;100.00;100917.84;6160140;23;20012;-91
2021/09/05 03:59:02;;;;;;;47.63;23.65;;;11.20;99.90;;;12.68;100.00;100900.97;6185939;23;20024;-92
2021/09/05 04:01:31;;;;;;;44.47;23.02;;;11.20;99.90;;;12.68;100.00;100909.38;6185170;23;20013;-90
2021/09/05 04:03:56;;;;;;;52.92;25.92;;;11.20;99.90;;;12.69;100.00;100913.00;6161531;23;20068;-91
2021/09/05 04:06:22;;;;;;;41.05;23.45;;;11.20;99.90;;;12.74;100.00;100911.91;6185626;23;20092;-90
2021/09/05 04:08:50;;;;;;;54.40;25.65;;;11.20;99.90;;;12.71;100.00;100910.66;6160323;23;20463;-90
2021/09/05 04:11:16;;;;;;;46.58;24.58;;;11.20;99.90;;;12.73;100.00;100908.28;6160420;23;20009;-92
2021/09/05 04:13:42;;;;;;;43.83;23.42;;;11.30;99.90;;;12.71;100.00;100907.84;6159829;23;20009;-90
2021/09/05 04:16:08;;;;;;;41.88;23.73;;;11.30;99.90;;;12.67;100.00;100912.56;6159533;23;20091;-91
2021/09/05 04:18:35;;;;;;;39.97;22.45;;;11.20;99.90;;;12.62;100.00;100910.03;6159562;23;20032;-91
2021/09/05 04:21:00;;;;;;;39.13;22.25;;;11.10;99.90;;;12.57;100.00;100908.34;6159833;23;20392;-90
2021/09/05 04:23:26;;;;;;;41.15;22.95;;;11.10;99.90;;;12.53;100.00;100907.44;6185186;23;20059;-90
2021/09/05 04:25:52;;;;;;;40.83;23.75;;;11.10;99.90;;;12.52;100.00;100907.81;6161145;23;20017;-90
2021/09/05 04:28:18;;;;;;;43.83;23.35;;;11.00;99.90;;;12.50;100.00;100905.34;6160647;23;20040;-92
2021/09/05 04:30:44;;;;;;;44.90;24.23;;;11.00;99.90;;;12.45;100.00;100905.66;6160217;23;20012;-90
2021/09/05 04:33:10;;;;;;;43.47;23.67;;;10.90;99.90;;;12.51;100.00;100914.59;6161215;23;20015;-89
2021/09/05 04:35:37;;;;;;;43.05;24.83;;;11.00;99.90;;;12.48;100.00;100909.72;6159887;23;20454;-91
2021/09/05 04:38:03;;;;;;;45.70;25.67;;;10.90;99.90;;;12.46;100.00;100910.06;6159957;23;20005;-89
2021/09/05 04:40:29;;;;;;;41.47;22.73;;;11.00;99.90;;;12.44;100.00;100917.22;6160663;23;20092;-90
2021/09/05 04:42:55;;;;;;;46.90;24.52;;;11.00;99.90;;;12.41;100.00;100917.94;6160350;23;20020;-90
2021/09/05 04:45:21;;;;;;;49.63;26.52;;;10.90;99.90;;;12.40;100.00;100921.91;6186065;23;20324;-90
2021/09/05 04:47:46;;;;;;;47.05;25.58;;;10.90;99.90;;;12.41;100.00;100927.16;6162279;23;20009;-90
2021/09/05 04:50:12;;;;;;;47.38;24.73;;;10.90;99.90;;;12.41;100.00;100927.16;6163144;23;20005;-90
2021/09/05 04:52:38;;;;;;;38.17;22.40;;;11.00;99.90;;;12.35;100.00;100931.41;6162787;23;20005;-90
2021/09/05 04:55:05;;;;;;;40.75;23.55;;;10.90;99.90;;;12.35;100.00;100934.22;6162841;23;20005;-90
2021/09/05 04:57:30;;;;;;;45.10;25.88;;;10.90;99.90;;;12.36;100.00;100932.25;6162790;23;20001;-89
2021/09/05 04:59:56;;;;;;;45.33;23.05;;;10.90;99.90;;;12.39;100.00;100935.13;6163438;23;20095;-89
2021/09/05 05:02:27;;;;;;;43.85;24.73;;;10.90;99.90;;;12.40;100.00;100936.72;6163210;23;20009;-91
2021/09/05 05:04:52;;;;;;;47.50;25.73;;;10.90;99.90;;;12.39;100.00;100939.91;6163471;23;20020;-92
2021/09/05 05:07:19;;;;;;;46.83;24.30;;;10.90;99.90;;;12.42;100.00;100945.59;6162974;23;20001;-92
2021/09/05 05:09:45;;;;;;;40.72;23.42;;;11.00;99.90;;;12.41;100.00;100941.16;6162605;23;20423;-90
2021/09/05 05:12:13;;;;;;;40.92;24.20;;;11.00;99.90;;;12.42;100.00;100944.78;6163250;23;20005;-90
2021/09/05 05:14:41;;;;;;;43.42;24.00;;;10.90;99.90;;;12.44;100.00;100942.41;6163659;23;20051;-90
2021/09/05 05:17:07;;;;;;;42.10;25.27;;;10.90;99.90;;;12.45;100.00;100955.25;6163938;23;20031;-90
2021/09/05 05:19:34;;;;;;;47.10;24.92;;;10.90;99.90;;;12.43;100.00;100949.19;6177047;23;20008;-91
2021/09/05 05:22:05;;;;;;;41.35;23.00;;;10.90;99.90;;;12.33;100.00;100949.78;6187649;23;20005;-90
2021/09/05 05:24:31;;;;;;;47.47;24.73;;;11.00;99.90;;;12.31;100.00;100940.91;6187357;23;20000;-89
2021/09/05 05:26:59;;;;;;;46.28;23.08;;;11.10;99.90;;;12.33;100.00;100955.38;6196074;23;20016;-91
2021/09/05 05:29:25;;;;;;;47.13;26.08;;;11.00;99.90;;;12.39;100.00;100962.31;6164159;23;20039;-90
2021/09/05 05:31:53;;;;;;;51.40;24.95;;;11.00;99.90;;;12.36;100.00;100954.66;6163894;23;20466;-91
2021/09/05 05:34:19;;;;;;;37.97;20.50;;;11.10;99.90;;;12.49;100.00;100965.34;6163419;23;20009;-90
2021/09/05 05:36:47;;;;;;;48.03;23.77;;;11.10;99.90;;;12.47;100.00;100956.53;6164012;23;20100;-92
2021/09/05 05:39:17;;;;;;;42.00;23.23;;;11.10;99.90;;;12.54;100.00;100964.28;6189559;23;20067;-90
2021/09/05 05:41:49;;;;;;;47.33;23.67;;;11.10;99.90;;;12.59;100.00;100969.59;6164560;23;20048;-89
2021/09/05 05:44:15;;;;;;;44.50;25.55;;;11.20;99.90;;;12.68;100.00;100967.44;6164078;23;20024;-91
2021/09/05 05:46:56;;;;;;;40.72;23.48;;;11.30;99.90;;;12.78;100.00;100960.44;6190494;23;20028;-90
2021/09/05 05:49:22;;;;;;;48.30;26.35;;;11.30;99.90;;;12.87;100.00;100967.47;6164322;23;20005;-90
2021/09/05 05:51:57;;;;;;;44.63;23.65;;;11.50;99.90;;;13.04;100.00;100977.44;6164996;23;20013;-91
2021/09/05 05:54:23;;;;;;;43.40;23.90;;;11.50;99.90;;;13.16;100.00;100972.53;6165265;23;20005;-91
2021/09/05 05:56:50;;;;;;;42.92;22.98;;;11.60;99.90;;;13.32;100.00;100974.50;6164115;23;20005;-91
2021/09/05 05:59:15;;;;;;;37.90;21.05;;;11.70;99.90;;;13.55;100.00;100976.16;6206494;23;20024;-90
2021/09/05 06:01:42;;;;;;;35.13;21.90;;;11.90;99.90;;;13.73;100.00;100973.72;6178235;23;20009;-92
2021/09/05 06:04:10;;;;;;;30.85;19.70;;;11.90;99.90;;;13.97;100.00;100976.16;6164507;23;20060;-91
2021/09/05 06:06:39;;;;;;;32.20;18.92;;;12.10;99.90;;;14.19;100.00;100971.78;6164602;23;20005;-90
2021/09/05 06:09:06;;;;;;;30.55;19.65;;;12.30;99.90;;;14.27;100.00;100962.25;6163935;23;20398;-92
2021/09/05 06:11:32;;;;;;;31.73;20.00;;;12.30;99.90;;;14.53;99.94;100978.38;6164634;23;20009;-91
2021/09/05 06:13:58;;;;;;;30.77;19.60;;;12.40;99.90;;;14.70;97.50;100977.88;6164629;23;20025;-90
2021/09/05 06:16:24;;;;;;;29.23;18.50;;;12.60;99.90;;;14.98;97.40;100975.47;6164828;23;20083;-91
2021/09/05 06:18:50;;;;;;;29.05;18.08;;;12.70;99.90;;;15.14;95.62;100976.09;6165097;23;20312;-91
2021/09/05 06:21:16;;;;;;;31.20;19.27;;;13.00;99.90;;;15.43;94.07;100974.47;6164456;23;20005;-90
2021/09/05 06:23:43;;;;;;;28.90;18.33;;;13.10;99.90;;;15.64;93.16;100973.91;6187886;23;20439;-91
2021/09/05 06:26:08;;;;;;;29.70;18.63;;;13.40;99.90;;;15.83;90.77;100982.19;6189765;23;20005;-92
2021/09/05 06:28:34;;;;;;;26.05;17.05;;;13.60;99.90;;;16.07;89.97;100986.47;6164725;23;20041;-91
2021/09/05 06:31:02;;;;;;;26.50;17.70;;;13.90;99.90;;;16.34;88.73;100985.13;6170049;23;20013;-92
2021/09/05 06:33:30;;;;;;;25.88;17.27;;;14.10;99.90;;;16.53;87.90;100989.72;6180009;23;20017;-86
2021/09/05 06:35:56;;;;;;;24.75;16.77;;;14.30;99.90;;;16.62;87.15;100991.03;6126197;23;20013;-85
2021/09/05 06:38:21;;;;;;;25.45;16.63;;;14.40;99.90;;;16.68;85.98;100995.13;6150707;23;20037;-87
2021/09/05 06:40:48;;;;;;;26.15;16.60;;;14.50;99.90;;;16.74;85.14;100995.56;6176455;23;20007;-86
2021/09/05 06:43:14;;;;;;;26.63;17.25;;;14.60;99.90;;;16.76;84.81;100998.81;6153831;23;20049;-86
2021/09/05 06:45:40;;;;;;;26.30;17.13;;;14.70;99.90;;;16.76;84.99;100998.81;6182227;23;20033;-86
2021/09/05 06:48:06;;;;;;;25.15;16.13;;;14.70;99.90;;;16.75;85.22;101003.63;6175795;23;20040;-88
2021/09/05 06:50:33;;;;;;;27.80;17.00;;;14.70;99.90;;;16.85;84.64;101005.72;6178170;23;20009;-88
2021/09/05 06:53:00;;;;;;;26.20;16.45;;;14.80;99.90;;;17.03;84.86;101010.66;6176485;23;20009;-86
2021/09/05 06:55:26;;;;;;;23.80;15.80;;;14.90;99.90;;;17.15;83.95;101007.50;6177028;23;20016;-87
2021/09/05 06:57:52;;;;;;;22.60;15.85;;;15.10;99.90;;;17.22;82.81;101018.84;6172796;23;20009;-87
2021/09/05 07:00:19;;;;;;;21.33;15.10;;;15.20;99.90;;;17.30;82.74;101014.88;6145820;23;20017;-88
2021/09/05 07:02:45;;;;;;;22.63;14.95;;;15.30;99.90;;;17.51;82.63;101012.16;6147156;23;20387;-89
2021/09/05 07:05:12;;;;;;;23.38;16.10;;;15.40;99.90;;;17.74;81.40;101014.69;6170697;23;20020;-88
2021/09/05 07:07:38;;;;;;;24.38;15.27;;;15.60;99.90;;;17.90;79.87;101015.16;6173669;23;20020;-85
2021/09/05 07:10:05;;;;;;;26.33;14.68;;;15.70;99.90;;;17.96;78.62;101022.03;6165836;23;20080;-87
2021/09/05 07:12:37;;;;;;;20.27;14.60;;;15.80;99.90;;;18.08;80.09;101020.84;6170358;23;20071;-87
2021/09/05 07:15:04;;;;;;;25.08;15.00;;;15.90;99.90;;;18.25;79.42;101037.03;6174879;23;20090;-87
2021/09/05 07:17:30;;;;;;;23.33;14.57;;;16.10;99.90;;;18.45;78.10;101018.50;6174645;23;20053;-87
2021/09/05 07:19:56;;;;;;;25.33;15.23;;;16.30;99.90;;;18.56;77.66;101013.66;6171961;23;20013;-87
2021/09/05 07:22:23;;;;;;;24.10;15.77;;;16.40;99.90;;;18.77;76.90;101018.53;6172611;23;20020;-86
2021/09/05 07:24:49;;;;;;;22.70;14.05;;;16.60;99.90;;;18.80;77.80;101015.69;6149246;23;20031;-86
2021/09/05 07:27:14;;;;;;;21.77;14.77;;;16.80;99.90;;;18.97;75.81;101016.91;6172150;23;20009;-89
2021/09/05 07:29:40;;;;;;;23.13;15.00;;;16.90;99.90;;;19.04;76.83;101010.41;6171514;23;20395;-89
2021/09/05 07:32:06;;;;;;;23.90;14.77;;;17.10;99.90;;;19.23;75.57;101022.09;6170200;23;20046;-87
2021/09/05 07:34:32;;;;;;;19.60;13.40;;;17.20;99.90;;;19.25;74.29;101007.53;6169449;23;20133;-87
2021/09/05 07:36:58;;;;;;;20.98;13.75;;;17.10;99.90;;;19.26;75.10;101017.66;6166715;23;20384;-86
2021/09/05 07:39:24;;;;;;;21.90;14.35;;;17.20;99.90;;;19.48;75.04;101022.06;6163617;23;20010;-89
2021/09/05 07:41:50;;;;;;;25.00;14.63;;;17.40;99.90;;;19.72;73.78;101023.16;6158862;23;20088;-89
2021/09/05 07:44:16;;;;;;;21.00;14.65;;;17.60;99.90;;;19.89;73.13;101030.78;6160008;23;20010;-88
2021/09/05 07:46:42;;;;;;;22.42;14.52;;;17.70;99.90;;;19.87;72.98;101031.19;6160302;23;20021;-88
2021/09/05 07:49:07;;;;;;;22.80;14.40;;;17.80;99.90;;;19.89;73.19;101031.59;6158058;23;20340;-88
2021/09/05 07:51:33;;;;;;;22.80;14.50;;;17.90;99.90;;;19.92;71.59;101033.63;6158374;23;20084;-89
2021/09/05 07:53:59;;;;;;;22.55;14.80;;;17.80;99.90;;;20.04;72.43;101040.03;6153656;23;20344;-88
2021/09/05 07:56:25;;;;;;;22.25;14.50;;;17.90;99.90;;;20.23;71.19;101037.47;6154069;23;20006;-86
2021/09/05 07:58:51;;;;;;;22.17;14.20;;;18.10;99.90;;;20.47;70.82;101035.75;6129901;23;20328;-84
2021/09/05 08:01:17;;;;;;;20.45;13.65;;;18.30;99.90;;;20.46;69.14;101034.94;6154238;23;20010;-86
2021/09/05 08:03:43;;;;;;;20.05;14.27;;;18.30;99.90;;;20.74;70.28;101041.63;6128485;23;20290;-89
2021/09/05 08:06:09;;;;;;;18.08;12.65;;;18.60;99.90;;;20.95;69.48;101042.22;6130835;23;20006;-86
2021/09/05 08:08:36;;;;;;;22.55;14.02;;;18.80;99.90;;;21.05;67.32;101037.69;6154356;23;20006;-86
2021/09/05 08:11:04;;;;;;;24.67;14.55;;;18.90;99.90;;;21.09;67.73;101037.66;6130790;23;20057;-85
2021/09/05 08:13:32;;;;;;;21.92;13.57;;;19.00;99.90;;;21.18;69.25;101043.69;6153602;23;20094;-87
2021/09/05 08:16:00;;;;;;;19.75;14.32;;;19.20;99.90;;;21.43;66.83;101050.72;6130427;23;20333;-86
2021/09/05 08:18:38;;;;;;;20.00;13.23;;;19.30;99.90;;;21.78;65.38;101046.63;6129868;23;20447;-86
2021/09/05 08:21:07;;;;;;;18.33;13.50;;;19.50;99.90;;;21.99;65.20;101054.91;6154454;23;20010;-84
2021/09/05 08:23:37;;;;;;;23.33;13.32;;;19.80;99.90;;;22.13;64.00;101053.13;6154191;23;20014;-88
2021/09/05 08:26:06;;;;;;;18.98;12.40;;;19.90;99.90;;;22.23;62.85;101060.69;6154322;23;20010;-86
2021/09/05 08:28:33;;;;;;;17.27;12.00;;;20.00;99.90;;;22.47;62.91;101057.50;6129564;23;20014;-83
2021/09/05 08:31:00;;;;;;;19.98;14.25;;;20.10;99.90;;;22.38;62.54;101050.75;6154020;23;20082;-86
2021/09/05 08:33:26;;;;;;;20.52;13.85;;;20.20;99.90;;;22.41;62.13;101059.19;6153159;23;20405;-86
2021/09/05 08:35:52;;;;;;;19.15;13.30;;;20.20;99.90;;;22.63;61.83;101068.25;6153934;23;20037;-82
2021/09/05 08:38:18;;;;;;;23.00;13.85;;;20.40;99.90;;;22.77;61.67;101067.22;6130824;23;20463;-85
2021/09/05 08:40:48;;;;;;;19.40;14.18;;;20.50;99.90;;;23.00;60.04;101065.19;6129580;23;20074;-85
2021/09/05 08:43:17;;;;;;;19.85;13.93;;;20.60;99.90;;;23.29;59.40;101068.34;6130232;23;20052;-83
2021/09/05 08:45:48;;;;;;;18.00;12.98;;;20.90;99.90;;;23.52;59.41;101079.75;6127912;23;20010;-84
2021/09/05 08:48:18;;;;;;;19.38;14.07;;;21.20;99.90;;;23.30;58.11;101072.00;6153495;23;20072;-84
2021/09/05 08:50:52;;;;;;;19.98;13.95;;;21.10;99.90;;;23.46;58.38;101072.94;6135219;23;20021;-84
2021/09/05 08:53:18;;;;;;;17.20;12.88;;;21.20;99.90;;;23.65;58.70;101077.06;6138754;23;20030;-84
2021/09/05 08:55:46;;;;;;;20.83;13.40;;;21.30;99.90;;;23.66;57.54;101072.16;6133673;23;20002;-82
2021/09/05 08:58:14;;;;;;;19.60;13.25;;;21.50;99.90;;;23.56;57.50;101082.53;6154571;23;20097;-85
2021/09/05 09:00:43;;;;;;;20.13;12.95;;;21.50;99.90;;;23.79;57.36;101082.47;6150667;23;20046;-83
2021/09/05 09:03:21;;;;;;;19.30;12.98;;;21.60;99.90;;;24.12;56.59;101083.44;6166760;23;20022;-85
2021/09/05 09:05:54;;;;;;;21.85;12.75;;;21.80;99.90;;;24.49;56.28;101085.88;6133383;23;20070;-85
2021/09/05 09:08:23;;;;;;;17.40;12.93;;;22.10;99.90;;;24.52;56.95;101092.75;6130749;23;20487;-86
2021/09/05 09:10:58;;;;;;;16.60;11.63;;;22.30;99.90;;;24.89;55.82;101085.75;6132939;23;20014;-83
2021/09/05 09:13:40;;;;;;;18.50;12.98;;;22.40;99.90;;;25.12;54.69;101085.56;6131111;23;20089;-86
2021/09/05 09:16:05;;;;;;;20.65;13.25;;;22.70;99.90;;;24.87;54.64;101096.84;6133079;23;20026;-85
2021/09/05 09:18:33;;;;;;;17.92;12.68;;;22.70;99.90;;;24.91;54.79;101089.78;6128402;23;20013;-84
2021/09/05 09:21:12;;;;;;;18.52;12.45;;;22.70;99.90;;;25.01;54.10;101082.97;6129737;23;20018;-84
2021/09/05 09:23:40;;;;;;;17.63;11.55;;;22.70;99.90;;;25.16;53.77;101092.81;6130848;23;20072;-84
2021/09/05 09:26:15;;;;;;;15.98;11.57;;;22.90;99.90;;;25.30;53.09;101093.69;6106383;23;20017;-83
2021/09/05 09:28:45;;;;;;;14.95;11.52;;;23.00;99.90;;;25.70;53.12;101095.06;6131761;23;20085;-84
2021/09/05 09:31:27;;;;;;;17.50;12.15;;;23.10;99.90;;;25.84;52.74;101097.53;6155592;23;20010;-84
2021/09/05 09:33:59;;;;;;;14.80;10.57;;;23.10;99.90;;;25.97;51.85;101097.56;6160215;23;20009;-88
2021/09/05 09:36:31;;;;;;;18.52;12.98;;;23.20;99.90;;;25.81;52.09;101097.63;6137389;23;20001;-86
2021/09/05 09:39:06;;;;;;;16.25;10.63;;;23.50;99.90;;;26.08;51.99;101098.84;6163766;23;20006;-87
2021/09/05 09:41:39;;;;;;;14.27;10.40;;;23.50;99.90;;;26.28;52.80;101101.56;6159993;23;20005;-86
2021/09/05 09:44:15;;;;;;;14.55;11.02;;;23.60;99.90;;;26.45;52.05;101096.56;6164761;23;20029;-83
2021/09/05 09:46:46;;;;;;;17.23;10.80;;;23.70;99.90;;;26.50;50.92;101093.91;6177759;23;20032;-82
2021/09/05 09:49:15;;;;;;;14.60;10.18;;;23.90;99.90;;;26.82;49.48;101101.50;6172717;23;20304;-85
2021/09/05 09:51:42;;;;;;;13.98;9.98;;;24.10;99.90;;;26.95;49.67;101101.50;6174691;23;20007;-80
2021/09/05 09:54:09;;;;;;;17.98;12.00;;;24.20;99.90;;;26.90;49.12;101094.31;6169137;23;20017;-85
2021/09/05 09:56:36;;;;;;;17.30;12.05;;;24.30;99.90;;;26.83;49.07;101097.41;6162768;23;20006;-83